Time;durP1;ratioP1;P1;durP2;ratioP2;P2;SDS_P1;SDS_P2;PMS_P1;PMS_P2;Temp;Humidity;BMP_temperature;BMP_pressure;BME280_temperature;BME280_humidity;BME280_pressure;Samples;Min_cycle;Max_cycle;Signal;HPM_P1;HPM_P2
2023/12/18 00:01:35;;;;;;;8.13;4.50;;;4.00;99.90;;;;;;7352285;32;20240;-56
2023/12/18 00:05:37;;;;;;;6.60;4.00;;;4.00;99.90;;;;;;7350838;32;20487;-56
2023/12/18 00:09:39;;;;;;;8.75;4.35;;;4.00;99.90;;;;;;7355093;32;20164;-56
2023/12/18 00:13:41;;;;;;;6.50;4.25;;;3.80;99.90;;;;;;7350681;32;20137;-57
2023/12/18 00:17:43;;;;;;;7.57;4.53;;;3.70;99.90;;;;;;7334092;32;20611;-57
2023/12/18 00:21:45;;;;;;;9.00;4.30;;;3.50;99.90;;;;;;7351064;32;20148;-57
2023/12/18 00:25:47;;;;;;;6.53;4.18;;;3.40;99.90;;;;;;7343881;32;20134;-56
2023/12/18 00:29:49;;;;;;;6.75;3.72;;;3.40;99.90;;;;;;7349825;32;20115;-56
2023/12/18 00:33:50;;;;;;;8.52;4.57;;;3.40;99.90;;;;;;7350117;32;20111;-54
2023/12/18 00:37:52;;;;;;;10.32;4.78;;;3.40;99.90;;;;;;7349170;32;20237;-57
2023/12/18 00:41:54;;;;;;;8.43;4.43;;;3.30;99.90;;;;;;7351000;32;20226;-57
2023/12/18 00:45:56;;;;;;;10.60;5.25;;;3.40;99.90;;;;;;7343753;32;20110;-57
2023/12/18 00:49:58;;;;;;;9.23;4.75;;;3.40;99.90;;;;;;7353715;32;20262;-57
2023/12/18 00:54:00;;;;;;;11.20;4.47;;;3.50;99.90;;;;;;7349019;32;20407;-56
2023/12/18 00:58:02;;;;;;;6.25;3.87;;;3.40;99.90;;;;;;7347096;32;20209;-57
2023/12/18 01:02:04;;;;;;;7.28;4.25;;;3.30;99.90;;;;;;7350232;32;20505;-57
2023/12/18 01:06:06;;;;;;;8.85;4.10;;;3.20;99.90;;;;;;7345247;32;20176;-55
2023/12/18 01:10:08;;;;;;;7.93;3.97;;;3.20;99.90;;;;;;7347374;32;20141;-55
2023/12/18 01:14:11;;;;;;;6.57;4.20;;;3.10;99.90;;;;;;7338692;32;20209;-55
2023/12/18 01:18:13;;;;;;;10.95;3.85;;;3.10;99.90;;;;;;7348503;32;20685;-55
2023/12/18 01:22:15;;;;;;;10.48;4.22;;;3.20;99.90;;;;;;7354429;32;20134;-57
2023/12/18 01:26:17;;;;;;;7.37;3.85;;;3.20;99.90;;;;;;7353206;32;20111;-55
2023/12/18 01:30:18;;;;;;;7.70;3.58;;;3.30;99.90;;;;;;7349485;32;20287;-56
2023/12/18 01:34:21;;;;;;;12.80;4.47;;;3.30;99.90;;;;;;7350559;32;20099;-55
2023/12/18 01:38:23;;;;;;;8.90;4.00;;;3.30;99.90;;;;;;7349385;32;20727;-56
2023/12/18 01:42:24;;;;;;;9.40;4.30;;;3.40;99.90;;;;;;7350160;32;20107;-56
2023/12/18 01:46:27;;;;;;;11.32;3.87;;;3.50;99.90;;;;;;7344116;32;20473;-57
2023/12/18 01:50:28;;;;;;;7.97;4.07;;;3.50;99.90;;;;;;7351137;32;20095;-56
2023/12/18 01:54:31;;;;;;;7.87;4.20;;;3.60;99.90;;;;;;7346642;32;20130;-54
2023/12/18 01:58:34;;;;;;;7.68;4.00;;;3.60;99.90;;;;;;7350539;32;20605;-58
2023/12/18 02:02:36;;;;;;;10.30;4.97;;;3.70;99.90;;;;;;7327173;32;20099;-56
2023/12/18 02:06:38;;;;;;;11.85;5.15;;;3.60;99.90;;;;;;7347177;32;20369;-56
2023/12/18 02:10:40;;;;;;;9.10;4.62;;;3.70;99.90;;;;;;7346784;32;20103;-56
2023/12/18 02:14:42;;;;;;;12.05;4.60;;;3.90;99.90;;;;;;7342452;32;20131;-56
2023/12/18 02:18:45;;;;;;;9.30;4.68;;;4.00;99.90;;;;;;7347769;32;20107;-56
2023/12/18 02:22:46;;;;;;;11.02;5.30;;;4.10;99.90;;;;;;7344079;32;20249;-56
2023/12/18 02:26:49;;;;;;;11.80;5.32;;;4.30;99.90;;;;;;7347367;32;20091;-56
2023/12/18 02:30:51;;;;;;;10.80;4.78;;;4.30;99.90;;;;;;7350943;32;20191;-56
2023/12/18 02:34:53;;;;;;;7.53;4.60;;;4.40;99.90;;;;;;7344210;32;20135;-57
2023/12/18 02:38:55;;;;;;;9.85;4.37;;;4.50;99.90;;;;;;7351203;32;20210;-56
2023/12/18 02:42:56;;;;;;;10.68;3.80;;;4.50;99.90;;;;;;7352214;32;20115;-55
2023/12/18 02:46:58;;;;;;;8.10;3.25;;;4.50;99.90;;;;;;7354984;32;20130;-55
2023/12/18 02:51:00;;;;;;;7.10;4.18;;;4.60;99.90;;;;;;7351967;32;20156;-56
2023/12/18 02:55:02;;;;;;;8.48;4.10;;;4.50;99.90;;;;;;7345983;32;20136;-56
2023/12/18 02:59:04;;;;;;;10.60;4.30;;;4.70;99.90;;;;;;7352496;32;20103;-56
2023/12/18 03:03:05;;;;;;;10.98;4.05;;;4.70;99.90;;;;;;7352532;32;20127;-55
2023/12/18 03:07:11;;;;;;;9.93;4.25;;;4.70;99.90;;;;;;7352095;32;20141;-55
2023/12/18 03:11:13;;;;;;;8.82;3.95;;;4.70;99.90;;;;;;7354047;32;20549;-55
2023/12/18 03:15:15;;;;;;;6.97;3.67;;;4.70;99.90;;;;;;7351200;32;20739;-56
2023/12/18 03:19:18;;;;;;;10.30;3.92;;;4.60;99.90;;;;;;7352221;32;20103;-56
2023/12/18 03:23:20;;;;;;;7.80;3.65;;;4.70;99.90;;;;;;7354542;32;20122;-55
2023/12/18 03:27:22;;;;;;;9.85;4.00;;;4.70;99.90;;;;;;7349296;32;20538;-57
2023/12/18 03:31:24;;;;;;;7.03;4.35;;;4.60;99.90;;;;;;7354473;32;20103;-56
2023/12/18 03:35:26;;;;;;;8.82;4.32;;;4.70;99.90;;;;;;7352407;32;20108;-56
2023/12/18 03:39:30;;;;;;;13.30;4.57;;;4.60;99.90;;;;;;7350064;32;20226;-54
2023/12/18 03:43:32;;;;;;;7.95;3.83;;;4.50;99.90;;;;;;7352715;32;20116;-56
2023/12/18 03:47:33;;;;;;;11.02;4.70;;;4.40;99.90;;;;;;7349014;32;20194;-56
2023/12/18 03:51:35;;;;;;;11.48;4.25;;;4.40;99.90;;;;;;7352361;32;20182;-56
2023/12/18 03:55:38;;;;;;;9.70;4.62;;;4.40;99.90;;;;;;7353560;32;20190;-56
2023/12/18 03:59:40;;;;;;;10.48;4.18;;;4.30;99.90;;;;;;7350495;32;20295;-56
2023/12/18 04:03:41;;;;;;;11.52;4.55;;;4.30;99.90;;;;;;7352943;32;20118;-56
2023/12/18 04:07:43;;;;;;;7.10;3.90;;;4.40;99.90;;;;;;7351596;32;20115;-56
2023/12/18 04:11:45;;;;;;;9.85;4.30;;;4.30;99.90;;;;;;7353351;32;20135;-57
2023/12/18 04:15:47;;;;;;;10.05;4.18;;;4.30;99.90;;;;;;7344889;32;20104;-56
2023/12/18 04:19:49;;;;;;;12.05;4.22;;;4.30;99.90;;;;;;7354010;32;20123;-56
2023/12/18 04:23:51;;;;;;;8.70;4.50;;;4.30;99.90;;;;;;7355746;32;20201;-56
2023/12/18 04:27:53;;;;;;;10.55;4.30;;;4.20;99.90;;;;;;7347408;32;20519;-57
2023/12/18 04:31:55;;;;;;;13.77;4.97;;;4.10;99.90;;;;;;7345480;32;20114;-56
2023/12/18 04:35:59;;;;;;;9.93;4.30;;;4.10;99.90;;;;;;7346132;32;20585;-56
2023/12/18 04:40:03;;;;;;;11.00;4.25;;;4.10;99.90;;;;;;7353550;32;20444;-54
2023/12/18 04:44:05;;;;;;;10.98;4.15;;;4.00;99.90;;;;;;7350167;32;20103;-56
2023/12/18 04:48:07;;;;;;;12.90;5.22;;;3.90;99.90;;;;;;7347430;32;20506;-56
2023/12/18 04:52:09;;;;;;;10.38;4.82;;;3.90;99.90;;;;;;7344267;32;20193;-56
2023/12/18 04:56:11;;;;;;;9.85;4.40;;;3.90;99.90;;;;;;7344947;32;20116;-56
2023/12/18 05:00:13;;;;;;;8.38;4.65;;;4.00;99.90;;;;;;7353973;32;20134;-57
2023/12/18 05:04:15;;;;;;;10.00;4.25;;;4.00;99.90;;;;;;7334790;32;20252;-56
2023/12/18 05:08:17;;;;;;;12.52;5.20;;;4.10;99.90;;;;;;7347687;32;20502;-56
2023/12/18 05:12:19;;;;;;;10.02;5.30;;;4.20;99.90;;;;;;7353978;32;20130;-55
2023/12/18 05:16:20;;;;;;;14.10;5.07;;;4.20;99.90;;;;;;7355620;32;20125;-53
2023/12/18 05:20:22;;;;;;;10.82;5.12;;;4.30;99.90;;;;;;7356954;32;20171;-55
2023/12/18 05:24:24;;;;;;;10.57;4.65;;;4.30;99.90;;;;;;7351941;32;20231;-59
2023/12/18 05:28:27;;;;;;;11.07;4.93;;;4.30;99.90;;;;;;7333203;32;20180;-57
2023/12/18 05:32:28;;;;;;;12.70;5.20;;;4.40;99.90;;;;;;7352916;32;20713;-56
2023/12/18 05:36:30;;;;;;;9.82;5.25;;;4.50;99.90;;;;;;7349005;32;20191;-55
2023/12/18 05:40:32;;;;;;;10.40;5.45;;;4.50;99.90;;;;;;7356513;32;20512;-57
2023/12/18 05:44:34;;;;;;;9.45;5.10;;;4.50;99.90;;;;;;7347877;32;20283;-57
2023/12/18 05:48:35;;;;;;;7.60;5.20;;;4.50;99.90;;;;;;7348814;32;20115;-55
2023/12/18 05:52:38;;;;;;;10.20;5.43;;;4.50;99.90;;;;;;7342771;32;20138;-56
2023/12/18 05:56:40;;;;;;;9.38;5.50;;;4.50;99.90;;;;;;7346454;32;20127;-56
2023/12/18 06:00:42;;;;;;;13.62;6.60;;;4.60;99.90;;;;;;7345769;32;20283;-55
2023/12/18 06:04:43;;;;;;;11.48;6.65;;;4.60;99.90;;;;;;7344165;32;20209;-57
2023/12/18 06:08:45;;;;;;;15.13;7.25;;;4.60;99.90;;;;;;7343882;32;20111;-56
2023/12/18 06:12:51;;;;;;;16.45;7.50;;;4.50;99.90;;;;;;7343458;32;20249;-56
2023/12/18 06:16:53;;;;;;;18.85;8.43;;;4.60;99.90;;;;;;7333534;32;20210;-57
2023/12/18 06:20:54;;;;;;;14.00;7.90;;;4.70;99.90;;;;;;7355034;32;20277;-57
2023/12/18 06:24:56;;;;;;;16.60;9.27;;;4.70;99.90;;;;;;7353138;32;20171;-56
2023/12/18 06:28:58;;;;;;;15.95;8.75;;;4.60;99.90;;;;;;7354101;32;20137;-56
2023/12/18 06:33:00;;;;;;;16.77;8.48;;;4.70;99.90;;;;;;7352285;32;20103;-56
2023/12/18 06:37:02;;;;;;;18.65;8.63;;;4.70;99.90;;;;;;7346226;32;20234;-56
2023/12/18 06:41:04;;;;;;;16.42;8.95;;;4.60;99.90;;;;;;7342981;32;20293;-57
2023/12/18 06:45:06;;;;;;;21.40;10.32;;;4.60;99.90;;;;;;7344250;32;20944;-56
2023/12/18 06:49:08;;;;;;;21.45;10.43;;;4.70;99.90;;;;;;7345258;32;20123;-56
2023/12/18 06:53:10;;;;;;;22.35;11.57;;;4.70;99.90;;;;;;7346918;32;20244;-54
2023/12/18 06:57:12;;;;;;;18.05;11.40;;;4.70;99.90;;;;;;7347708;32;20134;-56
2023/12/18 07:01:18;;;;;;;25.00;11.00;;;4.60;99.90;;;;;;7344955;32;20210;-56
2023/12/18 07:05:21;;;;;;;19.67;10.30;;;4.70;99.90;;;;;;7345459;32;20510;-55
2023/12/18 07:09:24;;;;;;;18.10;11.35;;;4.70;99.90;;;;;;7339447;32;20135;-57
2023/12/18 07:13:26;;;;;;;20.67;10.60;;;4.70;99.90;;;;;;7351080;32;20737;-56
2023/12/18 07:17:28;;;;;;;17.27;10.73;;;4.60;99.90;;;;;;7351743;32;20485;-55
2023/12/18 07:21:29;;;;;;;20.27;10.35;;;4.60;99.90;;;;;;7343728;32;20169;-54
2023/12/18 07:25:32;;;;;;;17.17;10.65;;;4.60;99.90;;;;;;7354637;32;20162;-55
2023/12/18 07:29:33;;;;;;;21.92;11.27;;;4.50;99.90;;;;;;7351844;32;20202;-55
2023/12/18 07:33:35;;;;;;;21.75;11.63;;;4.40;99.90;;;;;;7341040;32;20159;-56
2023/12/18 07:37:37;;;;;;;20.15;11.77;;;4.40;99.90;;;;;;7345289;32;20100;-56
2023/12/18 07:41:39;;;;;;;22.17;10.95;;;4.50;99.90;;;;;;7343841;32;20107;-56
2023/12/18 07:45:41;;;;;;;19.37;10.50;;;4.50;99.90;;;;;;7340677;32;20188;-56
2023/12/18 07:49:42;;;;;;;16.98;10.57;;;4.50;99.90;;;;;;7343829;32;20368;-57
2023/12/18 07:53:48;;;;;;;15.60;10.20;;;4.50;99.90;;;;;;7352724;32;20104;-57
2023/12/18 07:57:49;;;;;;;20.62;11.45;;;4.50;99.90;;;;;;7343601;32;20273;-56
2023/12/18 08:01:51;;;;;;;20.27;11.52;;;4.60;99.90;;;;;;7342108;32;20518;-56
2023/12/18 08:05:53;;;;;;;24.00;11.88;;;4.50;99.90;;;;;;7347589;32;20658;-57
2023/12/18 08:09:55;;;;;;;20.17;12.32;;;4.50;99.90;;;;;;7347855;32;20143;-58
2023/12/18 08:13:56;;;;;;;22.55;11.65;;;4.50;99.90;;;;;;7348581;32;20180;-57
2023/12/18 08:17:58;;;;;;;23.60;12.93;;;4.50;99.90;;;;;;7341768;32;20257;-57
2023/12/18 08:22:00;;;;;;;25.52;12.93;;;4.50;99.90;;;;;;7339777;32;20190;-57
2023/12/18 08:26:02;;;;;;;24.60;11.65;;;4.60;99.90;;;;;;7339377;32;20706;-58
2023/12/18 08:30:05;;;;;;;20.95;12.05;;;4.70;99.90;;;;;;7335725;32;20253;-55
2023/12/18 08:34:07;;;;;;;22.62;11.70;;;4.60;99.90;;;;;;7335514;32;21277;-58
2023/12/18 08:38:09;;;;;;;21.60;12.23;;;4.60;99.90;;;;;;7339794;32;20583;-54
2023/12/18 08:42:11;;;;;;;23.10;12.25;;;4.60;99.90;;;;;;7320042;32;20273;-57
2023/12/18 08:46:13;;;;;;;20.60;12.35;;;4.70;99.90;;;;;;7336756;32;20565;-57
2023/12/18 08:50:15;;;;;;;24.33;11.73;;;4.70;99.90;;;;;;7341386;32;20190;-56
2023/12/18 08:54:17;;;;;;;20.65;11.40;;;4.70;99.90;;;;;;7340801;32;20540;-57
2023/12/18 08:58:21;;;;;;;22.20;11.68;;;4.80;99.90;;;;;;7333927;32;20199;-57
2023/12/18 09:02:22;;;;;;;19.55;12.02;;;4.90;99.90;;;;;;7333882;32;20865;-57
2023/12/18 09:06:24;;;;;;;19.70;11.45;;;4.90;99.90;;;;;;7337080;32;20209;-57
2023/12/18 09:10:26;;;;;;;20.08;11.20;;;5.00;99.90;;;;;;7343126;32;20217;-56
2023/12/18 09:14:28;;;;;;;19.83;11.93;;;5.00;99.90;;;;;;7339877;32;20158;-57
2023/12/18 09:18:30;;;;;;;25.62;12.25;;;5.00;99.90;;;;;;7331887;32;20159;-57
2023/12/18 09:22:32;;;;;;;22.83;13.18;;;4.90;99.90;;;;;;7339178;32;20114;-57
2023/12/18 09:26:33;;;;;;;21.17;12.63;;;4.90;99.90;;;;;;7333916;32;20261;-57
2023/12/18 09:30:35;;;;;;;20.23;12.48;;;4.90;99.90;;;;;;7334450;32;20487;-56
2023/12/18 09:34:37;;;;;;;21.67;12.15;;;4.80;99.90;;;;;;7334573;32;20246;-57
2023/12/18 09:38:39;;;;;;;21.73;13.23;;;4.80;99.90;;;;;;7337354;32;20317;-56
2023/12/18 09:42:52;;;;;;;18.67;11.30;;;4.80;99.90;;;;;;7342057;32;20137;-58
2023/12/18 09:47:13;;;;;;;18.00;11.93;;;4.70;99.90;;;;;;7339313;32;20170;-57
2023/12/18 09:51:25;;;;;;;23.12;13.18;;;4.70;99.90;;;;;;7336298;32;20267;-57
2023/12/18 09:55:29;;;;;;;20.17;12.00;;;4.60;99.90;;;;;;7336104;32;20208;-57
2023/12/18 09:59:31;;;;;;;19.60;11.55;;;4.70;99.90;;;;;;7338615;32;22666;-57
2023/12/18 10:03:33;;;;;;;18.02;11.60;;;4.80;99.90;;;;;;7343794;32;20215;-58
2023/12/18 10:07:35;;;;;;;20.60;11.65;;;5.00;99.90;;;;;;7331197;32;20277;-58
2023/12/18 10:11:37;;;;;;;18.62;11.80;;;5.10;99.90;;;;;;7345740;32;20099;-57
2023/12/18 10:15:39;;;;;;;19.77;12.00;;;5.30;99.90;;;;;;7341287;32;20234;-57
2023/12/18 10:19:43;;;;;;;16.50;10.48;;;5.40;99.90;;;;;;7342265;32;20311;-57
2023/12/18 10:23:45;;;;;;;14.75;10.52;;;5.50;99.90;;;;;;7333939;32;20203;-58
2023/12/18 10:27:46;;;;;;;18.95;10.57;;;5.50;99.90;;;;;;7349382;32;20130;-58
2023/12/18 10:31:48;;;;;;;16.75;9.45;;;5.50;99.90;;;;;;7340113;32;20580;-57
2023/12/18 10:35:53;;;;;;;17.87;10.38;;;5.50;99.90;;;;;;7344341;32;20477;-57
2023/12/18 10:40:00;;;;;;;17.67;10.68;;;5.40;99.90;;;;;;7324030;32;20108;-58
2023/12/18 10:44:03;;;;;;;18.20;9.98;;;5.40;99.90;;;;;;7337789;32;20202;-58
2023/12/18 10:48:07;;;;;;;16.20;9.80;;;5.30;99.90;;;;;;7340191;32;20206;-58
2023/12/18 10:52:09;;;;;;;16.98;10.77;;;5.30;99.90;;;;;;7342958;32;20205;-57
2023/12/18 10:56:13;;;;;;;19.33;10.85;;;5.40;99.90;;;;;;7343522;32;20556;-57
2023/12/18 11:00:17;;;;;;;17.95;10.48;;;5.40;99.90;;;;;;7333840;32;20205;-57
2023/12/18 11:04:22;;;;;;;18.48;10.52;;;5.40;99.90;;;;;;7334354;32;20376;-57
2023/12/18 11:08:24;;;;;;;18.20;10.43;;;5.30;99.90;;;;;;7341283;32;20513;-57
2023/12/18 11:12:27;;;;;;;19.30;10.90;;;5.10;99.90;;;;;;7349982;32;20194;-57
2023/12/18 11:17:02;;;;;;;16.25;9.90;;;5.10;99.90;;;;;;7335550;32;20178;-55
2023/12/18 11:21:05;;;;;;;18.55;10.63;;;5.20;99.90;;;;;;7341694;32;20881;-57
2023/12/18 11:25:08;;;;;;;17.15;10.25;;;5.20;99.90;;;;;;7344400;32;20640;-57
2023/12/18 11:29:38;;;;;;;23.00;10.40;;;5.10;99.90;;;;;;7344511;32;20278;-57
2023/12/18 11:33:59;;;;;;;18.20;10.20;;;5.20;99.90;;;;;;7343453;32;20265;-58
2023/12/18 11:38:14;;;;;;;17.37;10.27;;;5.10;99.90;;;;;;7335290;32;20609;-56
2023/12/18 11:42:45;;;;;;;16.02;9.07;;;5.00;99.90;;;;;;7342840;32;20178;-57
2023/12/18 11:46:50;;;;;;;14.68;8.52;;;5.10;99.90;;;;;;7338418;32;20569;-57
2023/12/18 11:50:52;;;;;;;16.95;9.13;;;5.20;99.90;;;;;;7339800;32;20182;-57
2023/12/18 11:54:53;;;;;;;15.20;9.07;;;5.10;99.90;;;;;;7341371;32;20121;-57
2023/12/18 11:58:55;;;;;;;15.02;8.98;;;5.20;99.90;;;;;;7342601;32;20126;-58
2023/12/18 12:02:58;;;;;;;19.05;9.30;;;5.30;99.90;;;;;;7344811;32;20246;-58
2023/12/18 12:07:00;;;;;;;13.27;8.50;;;5.30;99.90;;;;;;7341929;32;20568;-55
2023/12/18 12:11:02;;;;;;;13.20;7.62;;;5.30;99.90;;;;;;7347913;32;20133;-58
2023/12/18 12:15:04;;;;;;;11.52;7.80;;;5.40;99.90;;;;;;7352983;32;22034;-59
2023/12/18 12:19:06;;;;;;;17.48;8.32;;;5.50;99.90;;;;;;7347817;32;20226;-57
2023/12/18 12:23:09;;;;;;;12.37;6.55;;;5.50;99.90;;;;;;7346588;32;20126;-58
2023/12/18 12:27:11;;;;;;;11.25;7.10;;;5.60;99.90;;;;;;7351580;32;20229;-58
2023/12/18 12:31:16;;;;;;;10.68;6.70;;;5.60;99.90;;;;;;7337790;32;20123;-58
2023/12/18 12:35:18;;;;;;;12.37;6.80;;;5.60;99.90;;;;;;7351466;32;20198;-58
2023/12/18 12:39:20;;;;;;;11.50;6.20;;;5.60;99.90;;;;;;7345321;32;20100;-59
2023/12/18 12:43:23;;;;;;;11.30;6.87;;;5.60;99.90;;;;;;7348000;32;20662;-60
2023/12/18 12:47:26;;;;;;;12.60;6.43;;;5.70;99.90;;;;;;7346783;32;20121;-59
2023/12/18 12:51:28;;;;;;;13.27;6.20;;;5.70;99.90;;;;;;7344537;32;20119;-57
2023/12/18 12:55:30;;;;;;;8.80;5.47;;;5.70;99.90;;;;;;7350194;32;20174;-58
2023/12/18 12:59:32;;;;;;;10.27;6.35;;;5.80;99.90;;;;;;7349973;32;20114;-58
2023/12/18 13:03:34;;;;;;;12.95;6.00;;;5.80;99.90;;;;;;7349534;32;20139;-58
2023/12/18 13:07:36;;;;;;;9.25;5.75;;;5.80;99.90;;;;;;7348460;32;20682;-59
2023/12/18 13:11:39;;;;;;;9.63;5.53;;;5.80;99.90;;;;;;7342136;32;20129;-58
2023/12/18 13:15:41;;;;;;;9.82;6.37;;;5.80;99.90;;;;;;7346547;32;20209;-57
2023/12/18 13:19:43;;;;;;;11.65;6.25;;;5.90;99.90;;;;;;7346328;32;20525;-58
2023/12/18 13:23:45;;;;;;;10.32;5.97;;;5.90;99.90;;;;;;7350327;32;20199;-59
2023/12/18 13:27:47;;;;;;;11.30;6.47;;;6.00;99.90;;;;;;7344267;32;20710;-59
2023/12/18 13:31:49;;;;;;;10.90;6.47;;;6.00;99.90;;;;;;7346209;32;20212;-58
2023/12/18 13:35:51;;;;;;;9.27;6.07;;;5.90;99.90;;;;;;7348898;32;20557;-56
2023/12/18 13:39:54;;;;;;;10.75;6.10;;;6.00;99.90;;;;;;7348308;32;20175;-58
2023/12/18 13:43:56;;;;;;;9.90;5.82;;;5.90;99.90;;;;;;7346769;32;20277;-58
2023/12/18 13:47:57;;;;;;;10.43;5.75;;;6.00;99.90;;;;;;7342986;32;20115;-56
2023/12/18 13:52:00;;;;;;;8.65;5.37;;;6.00;99.90;;;;;;7351737;32;20153;-58
2023/12/18 13:56:02;;;;;;;9.75;5.82;;;6.00;99.90;;;;;;7345741;32;20260;-58
2023/12/18 14:00:04;;;;;;;8.10;5.72;;;6.00;99.90;;;;;;7342271;32;20555;-58
2023/12/18 14:04:06;;;;;;;9.88;5.20;;;6.10;99.90;;;;;;7327924;32;20253;-56
2023/12/18 14:08:08;;;;;;;8.25;5.40;;;6.10;99.90;;;;;;7344783;32;20662;-59
2023/12/18 14:12:10;;;;;;;7.40;4.62;;;6.00;99.90;;;;;;7348427;32;20132;-58
2023/12/18 14:16:13;;;;;;;9.23;5.00;;;6.00;99.90;;;;;;7349212;32;20153;-58
2023/12/18 14:20:14;;;;;;;10.18;5.15;;;6.00;99.90;;;;;;7348817;32;20126;-56
2023/12/18 14:24:16;;;;;;;6.95;3.97;;;6.10;99.90;;;;;;7351180;32;20194;-59
2023/12/18 14:28:20;;;;;;;6.32;4.68;;;6.10;99.90;;;;;;7348342;32;20525;-58
2023/12/18 14:32:22;;;;;;;11.63;5.20;;;6.00;99.90;;;;;;7344875;32;20441;-61
2023/12/18 14:36:24;;;;;;;9.05;5.25;;;6.20;99.90;;;;;;7349224;32;22876;-58
2023/12/18 14:40:26;;;;;;;8.15;4.60;;;6.30;99.90;;;;;;7346671;32;20481;-58
2023/12/18 14:44:30;;;;;;;10.45;4.68;;;6.30;99.90;;;;;;7347237;32;20212;-58
2023/12/18 14:48:32;;;;;;;11.82;5.28;;;6.20;99.90;;;;;;7346612;32;20103;-59
2023/12/18 14:52:37;;;;;;;7.35;4.20;;;6.20;99.90;;;;;;7342036;32;20192;-58
2023/12/18 14:56:39;;;;;;;7.90;4.97;;;6.20;99.90;;;;;;7347457;32;20704;-58
2023/12/18 15:00:42;;;;;;;8.98;5.12;;;6.10;99.90;;;;;;7349439;32;21377;-59
2023/12/18 15:04:44;;;;;;;7.80;4.40;;;6.00;99.90;;;;;;7338916;32;20126;-58
2023/12/18 15:08:46;;;;;;;8.13;5.40;;;6.00;99.90;;;;;;7350921;32;20250;-58
2023/12/18 15:12:48;;;;;;;9.60;4.07;;;5.90;99.90;;;;;;7354903;32;20794;-58
2023/12/18 15:16:50;;;;;;;7.93;4.68;;;5.90;99.90;;;;;;7351319;32;20108;-58
2023/12/18 15:20:52;;;;;;;10.43;5.15;;;5.90;99.90;;;;;;7353940;32;20122;-58
2023/12/18 15:24:53;;;;;;;11.10;5.45;;;5.80;99.90;;;;;;7352949;32;20107;-59
2023/12/18 15:28:55;;;;;;;8.20;5.05;;;5.80;99.90;;;;;;7347414;32;20210;-59
2023/12/18 15:32:57;;;;;;;8.18;4.60;;;5.80;99.90;;;;;;7336693;32;20096;-58
2023/12/18 15:37:00;;;;;;;8.48;4.07;;;5.80;99.90;;;;;;7350885;32;20162;-57
2023/12/18 15:41:02;;;;;;;7.90;4.45;;;6.00;99.90;;;;;;7348712;32;20095;-57
2023/12/18 15:45:04;;;;;;;6.07;4.07;;;6.00;99.90;;;;;;7348517;32;20213;-57
2023/12/18 15:49:06;;;;;;;6.55;4.20;;;5.90;99.90;;;;;;7353335;32;20198;-58
2023/12/18 15:53:10;;;;;;;6.25;3.60;;;6.10;99.90;;;;;;7343864;32;20279;-58
2023/12/18 15:57:12;;;;;;;6.57;3.47;;;6.00;99.90;;;;;;7352057;32;20179;-58
2023/12/18 16:01:14;;;;;;;7.12;4.10;;;5.90;99.90;;;;;;7349132;32;20141;-58
2023/12/18 16:05:16;;;;;;;7.18;4.12;;;5.90;99.90;;;;;;7348088;32;20150;-58
2023/12/18 16:09:18;;;;;;;7.05;3.80;;;5.90;99.90;;;;;;7348884;32;20220;-59
2023/12/18 16:13:19;;;;;;;6.47;4.12;;;5.90;99.90;;;;;;7346093;32;20230;-57
2023/12/18 16:17:21;;;;;;;6.82;4.05;;;5.80;99.90;;;;;;7345170;32;20819;-56
2023/12/18 16:21:23;;;;;;;7.05;3.47;;;5.70;99.90;;;;;;7347189;32;20736;-60
2023/12/18 16:25:25;;;;;;;5.80;4.20;;;5.60;99.90;;;;;;7353600;32;20125;-58
2023/12/18 16:29:27;;;;;;;8.48;4.07;;;5.60;99.90;;;;;;7343948;32;20269;-58
2023/12/18 16:33:29;;;;;;;6.18;3.72;;;5.60;99.90;;;;;;7347235;32;20569;-58
2023/12/18 16:37:30;;;;;;;6.28;3.87;;;5.70;99.90;;;;;;7344610;32;20573;-56
2023/12/18 16:41:35;;;;;;;5.82;3.80;;;5.60;99.90;;;;;;7348798;32;20160;-59
2023/12/18 16:45:37;;;;;;;6.57;3.30;;;5.60;99.90;;;;;;7347469;32;20297;-57
2023/12/18 16:49:39;;;;;;;7.30;4.05;;;5.60;99.90;;;;;;7348344;32;20160;-57
2023/12/18 16:53:41;;;;;;;6.37;4.12;;;5.60;99.90;;;;;;7345151;32;20116;-57
2023/12/18 16:57:43;;;;;;;7.70;4.15;;;5.60;99.90;;;;;;7345590;32;20122;-57
2023/12/18 17:01:48;;;;;;;6.75;4.10;;;5.60;99.90;;;;;;7345626;32;20217;-58
2023/12/18 17:05:50;;;;;;;5.85;4.00;;;5.60;99.90;;;;;;7348532;32;20103;-54
2023/12/18 17:09:52;;;;;;;6.20;3.80;;;5.60;99.90;;;;;;7349387;32;20176;-56
2023/12/18 17:13:54;;;;;;;5.50;3.80;;;5.50;99.90;;;;;;7350220;32;20103;-56
2023/12/18 17:17:56;;;;;;;6.72;4.05;;;5.50;99.90;;;;;;7347379;32;20239;-56
2023/12/18 17:21:57;;;;;;;6.93;3.70;;;5.50;99.90;;;;;;7348688;32;20664;-57
2023/12/18 17:25:59;;;;;;;6.50;4.12;;;5.50;99.90;;;;;;7352102;32;20120;-56
2023/12/18 17:30:01;;;;;;;8.50;4.43;;;5.40;99.90;;;;;;7352707;32;20537;-56
2023/12/18 17:34:03;;;;;;;7.03;4.35;;;5.40;99.90;;;;;;7351489;32;20123;-58
2023/12/18 17:38:05;;;;;;;7.00;4.15;;;5.40;99.90;;;;;;7338760;32;20167;-56
2023/12/18 17:42:08;;;;;;;6.45;3.83;;;5.30;99.90;;;;;;7346236;32;20375;-57
2023/12/18 17:46:10;;;;;;;7.78;4.12;;;5.30;99.90;;;;;;7346870;32;20119;-57
2023/12/18 17:50:11;;;;;;;6.87;4.55;;;5.20;99.90;;;;;;7347602;32;20198;-57
2023/12/18 17:54:14;;;;;;;6.95;4.50;;;5.20;99.90;;;;;;7343933;32;20231;-56
2023/12/18 17:58:15;;;;;;;8.05;4.00;;;5.20;99.90;;;;;;7341094;32;20193;-57
2023/12/18 18:02:17;;;;;;;7.35;4.37;;;5.20;99.90;;;;;;7345949;32;20186;-57
2023/12/18 18:06:19;;;;;;;7.00;4.28;;;5.20;99.90;;;;;;7350346;32;20121;-56
2023/12/18 18:10:21;;;;;;;7.80;4.28;;;5.20;99.90;;;;;;7346404;32;20209;-56
2023/12/18 18:14:23;;;;;;;6.97;3.75;;;5.20;99.90;;;;;;7351469;32;20361;-57
2023/12/18 18:18:25;;;;;;;7.53;4.30;;;5.20;99.90;;;;;;7351538;32;20814;-57
2023/12/18 18:22:27;;;;;;;6.87;4.85;;;5.20;99.90;;;;;;7354647;32;20146;-56
2023/12/18 18:26:29;;;;;;;6.97;4.45;;;5.10;99.90;;;;;;7352035;32;20234;-55
2023/12/18 18:30:31;;;;;;;6.57;4.20;;;5.10;99.90;;;;;;7360288;32;20135;-56
2023/12/18 18:34:40;;;;;;;7.65;4.43;;;5.10;99.90;;;;;;7356178;32;20680;-57
2023/12/18 18:38:43;;;;;;;7.22;4.80;;;5.10;99.90;;;;;;7353006;32;20133;-57
2023/12/18 18:42:45;;;;;;;9.65;4.82;;;5.00;99.90;;;;;;7345680;32;20130;-58
2023/12/18 18:46:48;;;;;;;7.72;5.28;;;5.00;99.90;;;;;;7344278;32;20657;-57
2023/12/18 18:50:50;;;;;;;7.53;5.85;;;5.00;99.90;;;;;;7350549;32;20262;-57
2023/12/18 18:54:52;;;;;;;7.95;4.72;;;5.00;99.90;;;;;;7346618;32;20119;-57
2023/12/18 18:58:55;;;;;;;8.10;5.97;;;5.00;99.90;;;;;;7346012;32;20099;-57
2023/12/18 19:02:58;;;;;;;8.57;5.60;;;5.00;99.90;;;;;;7347626;32;20226;-56
2023/12/18 19:07:00;;;;;;;9.27;5.82;;;5.00;99.90;;;;;;7352160;32;20128;-66
2023/12/18 19:11:03;;;;;;;9.93;5.93;;;5.20;99.90;;;;;;7333969;32;20270;-64
2023/12/18 19:15:05;;;;;;;9.77;6.25;;;5.90;99.90;;;;;;7340815;32;20481;-57
2023/12/18 19:19:07;;;;;;;8.82;5.70;;;5.50;99.90;;;;;;7345510;32;20112;-57
2023/12/18 19:23:09;;;;;;;10.95;6.03;;;5.30;99.90;;;;;;7352339;32;20115;-56
2023/12/18 19:27:11;;;;;;;7.90;5.22;;;5.10;99.90;;;;;;7349683;32;20155;-56
2023/12/18 19:31:13;;;;;;;11.07;6.43;;;5.00;99.90;;;;;;7349343;32;20239;-55
2023/12/18 19:35:15;;;;;;;11.10;6.53;;;4.90;99.90;;;;;;7351268;32;20284;-55
2023/12/18 19:39:17;;;;;;;12.85;6.35;;;4.90;99.90;;;;;;7348741;32;20154;-56
2023/12/18 19:43:19;;;;;;;11.27;6.70;;;4.90;99.90;;;;;;7352353;32;20249;-56
2023/12/18 19:47:20;;;;;;;11.40;6.53;;;4.90;99.90;;;;;;7349379;32;20972;-55
2023/12/18 19:51:22;;;;;;;9.73;6.55;;;4.80;99.90;;;;;;7354222;32;20811;-57
2023/12/18 19:55:24;;;;;;;10.25;6.97;;;4.80;99.90;;;;;;7347848;32;20190;-55
2023/12/18 19:59:26;;;;;;;11.80;7.00;;;4.80;99.90;;;;;;7350206;32;20485;-55
2023/12/18 20:03:27;;;;;;;9.43;6.22;;;4.80;99.90;;;;;;7349737;32;20214;-56
2023/12/18 20:07:30;;;;;;;13.00;7.22;;;4.70;99.90;;;;;;7351307;32;20204;-55
2023/12/18 20:11:31;;;;;;;11.05;6.80;;;4.70;99.90;;;;;;7348152;32;20525;-56
2023/12/18 20:15:33;;;;;;;13.68;6.85;;;4.60;99.90;;;;;;7353804;32;20151;-57
2023/12/18 20:19:35;;;;;;;9.88;6.85;;;4.70;99.90;;;;;;7347150;32;20441;-56
2023/12/18 20:23:37;;;;;;;10.88;6.82;;;4.60;99.90;;;;;;7344954;32;20775;-56
2023/12/18 20:27:39;;;;;;;13.57;7.10;;;4.60;99.90;;;;;;7344115;32;20193;-54
2023/12/18 20:31:41;;;;;;;11.18;7.10;;;4.70;99.90;;;;;;7350141;32;20135;-56
2023/12/18 20:35:42;;;;;;;11.70;7.93;;;4.60;99.90;;;;;;7346313;32;20274;-58
2023/12/18 20:39:44;;;;;;;11.38;7.53;;;4.50;99.90;;;;;;7341688;32;20203;-57
2023/12/18 20:43:46;;;;;;;13.05;7.78;;;4.60;99.90;;;;;;7342826;32;20102;-57
2023/12/18 20:47:48;;;;;;;14.70;7.90;;;4.50;99.90;;;;;;7345536;32;20680;-59
2023/12/18 20:51:53;;;;;;;14.00;7.78;;;4.50;99.90;;;;;;7341759;32;20222;-56
2023/12/18 20:57:46;;;;;;;13.90;8.85;;;4.60;99.90;;;;;;7392670;31;20187;-58
2023/12/18 21:01:48;;;;;;;13.77;8.38;;;4.60;99.90;;;;;;7386278;32;20163;-57
2023/12/18 21:05:50;;;;;;;15.20;8.45;;;4.60;99.90;;;;;;7381851;32;20186;-56